sensor_id;sensor_type;location;lat;lon;timestamp;pressure;altitude;pressure_sealevel;temperature;humidity
72585;BME280;73873;40.084;32.908;2024-03-02T00:01:45;89302.59;;;6.54;57.22
72585;BME280;73873;40.084;32.908;2024-03-02T00:04:13;89314.63;;;6.55;58.44
72585;BME280;73873;40.084;32.908;2024-03-02T00:06:40;89303.88;;;6.83;57.61
72585;BME280;73873;40.084;32.908;2024-03-02T00:09:09;89302.63;;;7.08;56.67
72585;BME280;73873;40.084;32.908;2024-03-02T00:11:37;89297.19;;;7.26;56.22
72585;BME280;73873;40.084;32.908;2024-03-02T00:14:04;89301.06;;;7.40;55.97
72585;BME280;73873;40.084;32.908;2024-03-02T00:16:31;89300.13;;;7.43;55.34
72585;BME280;73873;40.084;32.908;2024-03-02T00:19:02;89299.47;;;7.33;55.05
72585;BME280;73873;40.084;32.908;2024-03-02T00:21:30;89299.69;;;6.91;56.78
72585;BME280;73873;40.084;32.908;2024-03-02T00:23:58;89303.59;;;6.81;57.74
72585;BME280;73873;40.084;32.908;2024-03-02T00:26:25;89290.19;;;6.85;57.57
72585;BME280;73873;40.084;32.908;2024-03-02T00:28:55;89307.75;;;6.97;57.27
72585;BME280;73873;40.084;32.908;2024-03-02T00:31:22;89308.00;;;6.84;58.37
72585;BME280;73873;40.084;32.908;2024-03-02T00:33:49;89294.81;;;6.75;58.76
72585;BME280;73873;40.084;32.908;2024-03-02T00:36:22;89299.41;;;6.89;58.07
72585;BME280;73873;40.084;32.908;2024-03-02T00:38:53;89281.66;;;7.04;57.12
72585;BME280;73873;40.084;32.908;2024-03-02T00:41:30;89289.97;;;7.27;56.17
72585;BME280;73873;40.084;32.908;2024-03-02T00:44:02;89286.22;;;7.19;57.17
72585;BME280;73873;40.084;32.908;2024-03-02T00:46:37;89294.25;;;7.09;57.48
72585;BME280;73873;40.084;32.908;2024-03-02T00:49:25;89281.06;;;7.00;58.59
72585;BME280;73873;40.084;32.908;2024-03-02T00:51:53;89278.16;;;6.98;58.02
72585;BME280;73873;40.084;32.908;2024-03-02T00:54:22;89279.28;;;7.06;57.95
72585;BME280;73873;40.084;32.908;2024-03-02T00:56:50;89277.53;;;7.18;57.20
72585;BME280;73873;40.084;32.908;2024-03-02T01:02:33;89272.25;;;7.33;56.56
72585;BME280;73873;40.084;32.908;2024-03-02T01:05:01;89268.34;;;7.28;56.22
72585;BME280;73873;40.084;32.908;2024-03-02T01:07:28;89255.91;;;7.05;55.66
72585;BME280;73873;40.084;32.908;2024-03-02T01:09:55;89259.81;;;7.09;55.98
72585;BME280;73873;40.084;32.908;2024-03-02T01:12:22;89261.81;;;6.85;56.62
72585;BME280;73873;40.084;32.908;2024-03-02T01:14:50;89267.78;;;6.71;57.82
72585;BME280;73873;40.084;32.908;2024-03-02T01:17:17;89265.88;;;6.71;58.38
72585;BME280;73873;40.084;32.908;2024-03-02T01:19:45;89254.41;;;6.89;57.72
72585;BME280;73873;40.084;32.908;2024-03-02T01:22:12;89250.97;;;6.98;57.28
72585;BME280;73873;40.084;32.908;2024-03-02T01:24:39;89257.91;;;6.95;57.38
72585;BME280;73873;40.084;32.908;2024-03-02T01:27:06;89256.31;;;6.89;57.20
72585;BME280;73873;40.084;32.908;2024-03-02T01:29:33;89250.88;;;6.92;57.42
72585;BME280;73873;40.084;32.908;2024-03-02T01:32:00;89244.75;;;7.01;57.69
72585;BME280;73873;40.084;32.908;2024-03-02T01:34:27;89242.09;;;7.01;56.70
72585;BME280;73873;40.084;32.908;2024-03-02T01:36:54;89250.50;;;6.99;56.76
72585;BME280;73873;40.084;32.908;2024-03-02T01:39:21;89248.56;;;6.85;57.51
72585;BME280;73873;40.084;32.908;2024-03-02T01:41:48;89238.66;;;6.56;59.12
72585;BME280;73873;40.084;32.908;2024-03-02T01:44:15;89254.25;;;6.30;60.92
72585;BME280;73873;40.084;32.908;2024-03-02T01:46:42;89237.78;;;6.11;61.19
72585;BME280;73873;40.084;32.908;2024-03-02T01:49:09;89242.84;;;6.24;60.77
72585;BME280;73873;40.084;32.908;2024-03-02T01:51:36;89241.88;;;6.36;60.10
72585;BME280;73873;40.084;32.908;2024-03-02T01:54:03;89243.16;;;6.17;60.45
72585;BME280;73873;40.084;32.908;2024-03-02T01:56:30;89241.31;;;6.32;60.00
72585;BME280;73873;40.084;32.908;2024-03-02T01:58:57;89238.28;;;6.48;59.27
72585;BME280;73873;40.084;32.908;2024-03-02T02:01:24;89235.63;;;6.48;59.36
72585;BME280;73873;40.084;32.908;2024-03-02T02:03:51;89226.56;;;6.40;58.74
72585;BME280;73873;40.084;32.908;2024-03-02T02:06:18;89227.47;;;6.37;58.77
72585;BME280;73873;40.084;32.908;2024-03-02T02:08:45;89224.66;;;6.41;58.81
72585;BME280;73873;40.084;32.908;2024-03-02T02:11:15;89225.78;;;6.49;58.70
72585;BME280;73873;40.084;32.908;2024-03-02T02:13:42;89232.91;;;6.58;58.21
72585;BME280;73873;40.084;32.908;2024-03-02T02:16:11;89229.16;;;6.64;58.35
72585;BME280;73873;40.084;32.908;2024-03-02T02:18:39;89226.19;;;6.71;57.52
72585;BME280;73873;40.084;32.908;2024-03-02T02:21:06;89219.44;;;6.70;57.16
72585;BME280;73873;40.084;32.908;2024-03-02T02:23:34;89216.97;;;6.67;56.94
72585;BME280;73873;40.084;32.908;2024-03-02T02:26:02;89197.97;;;6.68;56.20
72585;BME280;73873;40.084;32.908;2024-03-02T02:28:29;89187.16;;;6.42;55.51
72585;BME280;73873;40.084;32.908;2024-03-02T02:30:56;89191.59;;;5.97;57.41
72585;BME280;73873;40.084;32.908;2024-03-02T02:33:23;89203.69;;;5.80;57.75
72585;BME280;73873;40.084;32.908;2024-03-02T02:35:50;89199.22;;;5.62;59.51
72585;BME280;73873;40.084;32.908;2024-03-02T02:38:17;89196.41;;;5.75;59.19
72585;BME280;73873;40.084;32.908;2024-03-02T02:40:45;89195.41;;;5.96;58.52
72585;BME280;73873;40.084;32.908;2024-03-02T02:43:12;89196.75;;;6.16;58.20
72585;BME280;73873;40.084;32.908;2024-03-02T02:45:39;89199.13;;;6.14;58.63
72585;BME280;73873;40.084;32.908;2024-03-02T02:48:06;89200.13;;;5.92;59.49
72585;BME280;73873;40.084;32.908;2024-03-02T02:50:33;89194.00;;;6.10;59.08
72585;BME280;73873;40.084;32.908;2024-03-02T02:53:00;89186.13;;;6.25;58.71
72585;BME280;73873;40.084;32.908;2024-03-02T02:55:27;89187.50;;;6.35;58.34
72585;BME280;73873;40.084;32.908;2024-03-02T02:57:55;89191.91;;;6.38;57.85
72585;BME280;73873;40.084;32.908;2024-03-02T03:00:22;89175.50;;;6.49;58.05
72585;BME280;73873;40.084;32.908;2024-03-02T03:02:49;89175.91;;;6.57;57.56
72585;BME280;73873;40.084;32.908;2024-03-02T03:05:18;89168.38;;;6.40;57.10
72585;BME280;73873;40.084;32.908;2024-03-02T03:07:48;89169.59;;;6.15;57.35
72585;BME280;73873;40.084;32.908;2024-03-02T03:10:16;89167.06;;;5.97;58.46
72585;BME280;73873;40.084;32.908;2024-03-02T03:12:43;89160.34;;;6.11;58.29
72585;BME280;73873;40.084;32.908;2024-03-02T03:15:11;89167.41;;;6.14;58.80
72585;BME280;73873;40.084;32.908;2024-03-02T03:17:38;89173.72;;;5.83;60.02
72585;BME280;73873;40.084;32.908;2024-03-02T03:20:06;89179.50;;;5.49;60.85
72585;BME280;73873;40.084;32.908;2024-03-02T03:22:33;89167.13;;;5.22;62.55
72585;BME280;73873;40.084;32.908;2024-03-02T03:25:00;89161.97;;;5.60;61.05
72585;BME280;73873;40.084;32.908;2024-03-02T03:27:27;89169.91;;;5.84;59.57
72585;BME280;73873;40.084;32.908;2024-03-02T03:29:54;89170.44;;;5.97;60.03
72585;BME280;73873;40.084;32.908;2024-03-02T03:32:22;89178.19;;;5.77;60.93
72585;BME280;73873;40.084;32.908;2024-03-02T03:34:54;89180.00;;;5.62;61.52
72585;BME280;73873;40.084;32.908;2024-03-02T03:37:22;89181.91;;;5.61;60.88
72585;BME280;73873;40.084;32.908;2024-03-02T03:39:49;89167.25;;;5.60;61.82
72585;BME280;73873;40.084;32.908;2024-03-02T03:42:19;89172.72;;;5.81;60.60
72585;BME280;73873;40.084;32.908;2024-03-02T03:44:53;89178.97;;;5.92;60.65
72585;BME280;73873;40.084;32.908;2024-03-02T03:47:20;89176.19;;;5.63;60.88
72585;BME280;73873;40.084;32.908;2024-03-02T03:49:46;89175.19;;;5.93;60.11
72585;BME280;73873;40.084;32.908;2024-03-02T03:52:13;89172.50;;;6.17;59.82
72585;BME280;73873;40.084;32.908;2024-03-02T03:54:40;89172.28;;;6.30;59.16
72585;BME280;73873;40.084;32.908;2024-03-02T03:57:07;89171.13;;;5.74;59.82
72585;BME280;73873;40.084;32.908;2024-03-02T03:59:34;89177.13;;;5.51;61.67
72585;BME280;73873;40.084;32.908;2024-03-02T04:02:01;89173.44;;;5.81;60.22
72585;BME280;73873;40.084;32.908;2024-03-02T04:04:28;89164.81;;;6.05;59.60
72585;BME280;73873;40.084;32.908;2024-03-02T04:06:55;89166.28;;;6.06;58.87
72585;BME280;73873;40.084;32.908;2024-03-02T04:09:22;89175.84;;;6.03;59.10
72585;BME280;73873;40.084;32.908;2024-03-02T04:11:49;89178.09;;;5.95;60.32
72585;BME280;73873;40.084;32.908;2024-03-02T04:14:16;89170.13;;;6.19;59.80
72585;BME280;73873;40.084;32.908;2024-03-02T04:16:42;89165.16;;;5.97;59.65
72585;BME280;73873;40.084;32.908;2024-03-02T04:19:09;89172.31;;;5.73;60.90
72585;BME280;73873;40.084;32.908;2024-03-02T04:21:36;89166.94;;;5.91;60.50
72585;BME280;73873;40.084;32.908;2024-03-02T04:24:04;89159.25;;;6.03;60.07
72585;BME280;73873;40.084;32.908;2024-03-02T04:26:31;89161.66;;;6.15;59.28
72585;BME280;73873;40.084;32.908;2024-03-02T04:28:58;89162.94;;;6.20;59.31
72585;BME280;73873;40.084;32.908;2024-03-02T04:31:25;89156.31;;;6.01;60.20
72585;BME280;73873;40.084;32.908;2024-03-02T04:33:52;89143.69;;;6.19;59.58
72585;BME280;73873;40.084;32.908;2024-03-02T04:36:19;89139.91;;;6.20;58.56
72585;BME280;73873;40.084;32.908;2024-03-02T04:38:46;89146.38;;;5.95;58.95
72585;BME280;73873;40.084;32.908;2024-03-02T04:41:13;89156.97;;;5.86;59.63
72585;BME280;73873;40.084;32.908;2024-03-02T04:43:40;89158.25;;;5.43;61.80
72585;BME280;73873;40.084;32.908;2024-03-02T04:46:07;89157.47;;;5.52;62.35
72585;BME280;73873;40.084;32.908;2024-03-02T04:48:34;89160.50;;;5.83;60.96
72585;BME280;73873;40.084;32.908;2024-03-02T04:51:01;89145.31;;;6.02;59.98
72585;BME280;73873;40.084;32.908;2024-03-02T04:53:28;89153.91;;;6.12;60.20
72585;BME280;73873;40.084;32.908;2024-03-02T04:55:55;89160.53;;;6.31;59.82
72585;BME280;73873;40.084;32.908;2024-03-02T04:58:22;89163.63;;;6.30;59.58
72585;BME280;73873;40.084;32.908;2024-03-02T05:00:49;89166.41;;;6.11;59.81
72585;BME280;73873;40.084;32.908;2024-03-02T05:03:16;89170.63;;;5.94;59.95
72585;BME280;73873;40.084;32.908;2024-03-02T05:05:43;89176.38;;;5.83;61.27
72585;BME280;73873;40.084;32.908;2024-03-02T05:08:10;89176.66;;;5.85;60.86
72585;BME280;73873;40.084;32.908;2024-03-02T05:10:37;89181.75;;;5.98;61.19
72585;BME280;73873;40.084;32.908;2024-03-02T05:13:04;89184.97;;;6.02;60.97
72585;BME280;73873;40.084;32.908;2024-03-02T05:15:31;89185.56;;;6.21;60.71
72585;BME280;73873;40.084;32.908;2024-03-02T05:17:58;89192.25;;;6.31;60.23
72585;BME280;73873;40.084;32.908;2024-03-02T05:20:25;89192.06;;;6.11;61.93
72585;BME280;73873;40.084;32.908;2024-03-02T05:22:51;89196.41;;;5.75;63.43
72585;BME280;73873;40.084;32.908;2024-03-02T05:25:19;89195.16;;;5.85;64.12
72585;BME280;73873;40.084;32.908;2024-03-02T05:27:46;89201.63;;;5.84;63.67
72585;BME280;73873;40.084;32.908;2024-03-02T05:30:13;89194.31;;;5.79;63.67
72585;BME280;73873;40.084;32.908;2024-03-02T05:32:40;89209.63;;;5.66;65.88
72585;BME280;73873;40.084;32.908;2024-03-02T05:35:07;89209.97;;;5.83;64.57
72585;BME280;73873;40.084;32.908;2024-03-02T05:37:34;89215.84;;;5.87;65.41
72585;BME280;73873;40.084;32.908;2024-03-02T05:40:01;89208.06;;;6.16;63.89
72585;BME280;73873;40.084;32.908;2024-03-02T05:42:28;89211.97;;;6.45;63.31
72585;BME280;73873;40.084;32.908;2024-03-02T05:44:55;89212.94;;;6.57;63.95
72585;BME280;73873;40.084;32.908;2024-03-02T05:47:22;89210.41;;;6.77;63.21
72585;BME280;73873;40.084;32.908;2024-03-02T05:49:49;89214.16;;;7.00;62.58
72585;BME280;73873;40.084;32.908;2024-03-02T05:52:16;89210.31;;;7.01;58.66
72585;BME280;73873;40.084;32.908;2024-03-02T05:54:43;89221.47;;;6.90;60.41
72585;BME280;73873;40.084;32.908;2024-03-02T05:57:10;89213.22;;;6.35;64.88
72585;BME280;73873;40.084;32.908;2024-03-02T05:59:37;89222.84;;;5.99;67.60
72585;BME280;73873;40.084;32.908;2024-03-02T06:02:04;89227.69;;;5.67;66.72
72585;BME280;73873;40.084;32.908;2024-03-02T06:04:31;89223.66;;;5.81;65.22
72585;BME280;73873;40.084;32.908;2024-03-02T06:06:58;89224.75;;;5.98;63.83
72585;BME280;73873;40.084;32.908;2024-03-02T06:09:25;89228.47;;;6.16;62.71
72585;BME280;73873;40.084;32.908;2024-03-02T06:11:52;89220.63;;;6.31;62.67
72585;BME280;73873;40.084;32.908;2024-03-02T06:14:19;89224.31;;;6.48;63.07
72585;BME280;73873;40.084;32.908;2024-03-02T06:16:46;89224.34;;;6.63;63.67
72585;BME280;73873;40.084;32.908;2024-03-02T06:19:13;89221.47;;;6.90;63.01
72585;BME280;73873;40.084;32.908;2024-03-02T06:21:39;89217.91;;;7.23;62.27
72585;BME280;73873;40.084;32.908;2024-03-02T06:24:06;89221.75;;;7.22;62.63
72585;BME280;73873;40.084;32.908;2024-03-02T06:26:33;89227.25;;;7.03;61.46
72585;BME280;73873;40.084;32.908;2024-03-02T06:29:00;89227.41;;;7.15;61.38
72585;BME280;73873;40.084;32.908;2024-03-02T06:31:27;89219.28;;;7.33;61.67
72585;BME280;73873;40.084;32.908;2024-03-02T06:33:54;89223.84;;;7.47;61.32
72585;BME280;73873;40.084;32.908;2024-03-02T06:36:21;89221.84;;;7.57;60.38
72585;BME280;73873;40.084;32.908;2024-03-02T06:38:48;89224.28;;;7.60;60.91
72585;BME280;73873;40.084;32.908;2024-03-02T06:41:15;89217.38;;;7.48;61.60
72585;BME280;73873;40.084;32.908;2024-03-02T06:43:42;89214.25;;;7.35;61.52
72585;BME280;73873;40.084;32.908;2024-03-02T06:46:09;89215.19;;;7.47;60.60
72585;BME280;73873;40.084;32.908;2024-03-02T06:48:36;89218.03;;;7.78;61.39
72585;BME280;73873;40.084;32.908;2024-03-02T06:51:03;89216.97;;;8.05;60.86
72585;BME280;73873;40.084;32.908;2024-03-02T06:53:30;89218.44;;;8.26;59.90
72585;BME280;73873;40.084;32.908;2024-03-02T06:55:57;89217.19;;;8.37;60.07
72585;BME280;73873;40.084;32.908;2024-03-02T06:58:24;89225.22;;;8.28;61.19
72585;BME280;73873;40.084;32.908;2024-03-02T07:00:51;89216.66;;;8.18;60.98
72585;BME280;73873;40.084;32.908;2024-03-02T07:03:18;89212.50;;;8.32;61.70
72585;BME280;73873;40.084;32.908;2024-03-02T07:05:45;89216.59;;;8.12;65.32
72585;BME280;73873;40.084;32.908;2024-03-02T07:08:12;89210.81;;;8.14;64.72
72585;BME280;73873;40.084;32.908;2024-03-02T07:10:38;89212.00;;;8.13;64.76
72585;BME280;73873;40.084;32.908;2024-03-02T07:13:05;89224.03;;;8.29;64.82
72585;BME280;73873;40.084;32.908;2024-03-02T07:15:32;89222.03;;;8.23;59.80
72585;BME280;73873;40.084;32.908;2024-03-02T07:17:59;89215.59;;;8.30;60.53
72585;BME280;73873;40.084;32.908;2024-03-02T07:20:26;89210.53;;;8.47;62.08
72585;BME280;73873;40.084;32.908;2024-03-02T07:22:53;89217.28;;;8.68;62.26
72585;BME280;73873;40.084;32.908;2024-03-02T07:25:20;89212.63;;;8.84;61.96
72585;BME280;73873;40.084;32.908;2024-03-02T07:27:50;89217.69;;;8.61;63.35
72585;BME280;73873;40.084;32.908;2024-03-02T07:30:18;89218.53;;;8.32;64.92
72585;BME280;73873;40.084;32.908;2024-03-02T07:32:45;89211.72;;;8.46;65.21
72585;BME280;73873;40.084;32.908;2024-03-02T07:35:13;89215.75;;;8.62;65.17
72585;BME280;73873;40.084;32.908;2024-03-02T07:37:41;89217.03;;;8.66;65.88
72585;BME280;73873;40.084;32.908;2024-03-02T07:40:09;89207.72;;;8.76;63.43
72585;BME280;73873;40.084;32.908;2024-03-02T07:42:37;89202.53;;;8.88;59.93
72585;BME280;73873;40.084;32.908;2024-03-02T07:45:04;89207.22;;;8.98;56.64
72585;BME280;73873;40.084;32.908;2024-03-02T07:47:33;89208.22;;;9.01;60.74
72585;BME280;73873;40.084;32.908;2024-03-02T07:50:01;89210.25;;;8.65;60.72
72585;BME280;73873;40.084;32.908;2024-03-02T07:52:28;89210.53;;;8.67;59.41
72585;BME280;73873;40.084;32.908;2024-03-02T07:54:54;89201.34;;;8.68;60.84
72585;BME280;73873;40.084;32.908;2024-03-02T07:57:21;89201.91;;;8.72;64.82
72585;BME280;73873;40.084;32.908;2024-03-02T07:59:49;89198.59;;;8.57;65.95
72585;BME280;73873;40.084;32.908;2024-03-02T08:02:16;89212.50;;;8.52;66.44
72585;BME280;73873;40.084;32.908;2024-03-02T08:04:43;89199.66;;;8.45;66.27
72585;BME280;73873;40.084;32.908;2024-03-02T08:07:10;89197.41;;;8.38;66.83
72585;BME280;73873;40.084;32.908;2024-03-02T08:09:37;89200.09;;;8.43;67.64
72585;BME280;73873;40.084;32.908;2024-03-02T08:12:04;89198.91;;;8.65;63.66
72585;BME280;73873;40.084;32.908;2024-03-02T08:14:31;89199.88;;;8.88;60.43
72585;BME280;73873;40.084;32.908;2024-03-02T08:16:58;89198.50;;;8.98;62.53
72585;BME280;73873;40.084;32.908;2024-03-02T08:19:25;89196.44;;;9.07;61.29
72585;BME280;73873;40.084;32.908;2024-03-02T08:21:52;89188.13;;;9.20;58.65
72585;BME280;73873;40.084;32.908;2024-03-02T08:24:19;89191.13;;;9.33;58.60
72585;BME280;73873;40.084;32.908;2024-03-02T08:26:46;89186.31;;;9.37;57.36
72585;BME280;73873;40.084;32.908;2024-03-02T08:29:13;89184.53;;;9.55;57.81
72585;BME280;73873;40.084;32.908;2024-03-02T08:31:40;89189.69;;;9.70;55.37
72585;BME280;73873;40.084;32.908;2024-03-02T08:34:08;89185.09;;;9.70;52.63
72585;BME280;73873;40.084;32.908;2024-03-02T08:36:35;89178.25;;;9.58;55.36
72585;BME280;73873;40.084;32.908;2024-03-02T08:39:02;89180.44;;;9.59;56.97
72585;BME280;73873;40.084;32.908;2024-03-02T08:41:28;89182.25;;;9.79;58.84
72585;BME280;73873;40.084;32.908;2024-03-02T08:43:55;89172.50;;;10.02;54.14
72585;BME280;73873;40.084;32.908;2024-03-02T08:46:22;89175.84;;;10.40;54.01
72585;BME280;73873;40.084;32.908;2024-03-02T08:48:49;89160.25;;;10.75;53.08
72585;BME280;73873;40.084;32.908;2024-03-02T08:51:16;89167.13;;;11.16;50.94
72585;BME280;73873;40.084;32.908;2024-03-02T08:53:43;89161.31;;;11.40;51.85
72585;BME280;73873;40.084;32.908;2024-03-02T08:56:10;89161.81;;;11.32;50.13
72585;BME280;73873;40.084;32.908;2024-03-02T08:58:37;89157.88;;;10.94;50.43
72585;BME280;73873;40.084;32.908;2024-03-02T09:01:04;89160.53;;;10.94;50.37
72585;BME280;73873;40.084;32.908;2024-03-02T09:03:31;89149.69;;;11.20;50.14
72585;BME280;73873;40.084;32.908;2024-03-02T09:05:58;89140.97;;;11.36;49.89
72585;BME280;73873;40.084;32.908;2024-03-02T09:08:25;89141.47;;;11.63;49.40
72585;BME280;73873;40.084;32.908;2024-03-02T09:10:52;89137.03;;;12.10;48.93
72585;BME280;73873;40.084;32.908;2024-03-02T09:13:19;89134.88;;;12.09;49.54
72585;BME280;73873;40.084;32.908;2024-03-02T09:15:46;89134.38;;;12.10;47.01
72585;BME280;73873;40.084;32.908;2024-03-02T09:18:13;89129.03;;;12.10;48.99
72585;BME280;73873;40.084;32.908;2024-03-02T09:20:40;89118.84;;;12.03;49.78
72585;BME280;73873;40.084;32.908;2024-03-02T09:23:07;89120.25;;;12.27;48.28
72585;BME280;73873;40.084;32.908;2024-03-02T09:25:34;89116.88;;;12.20;45.76
72585;BME280;73873;40.084;32.908;2024-03-02T09:28:01;89118.47;;;12.46;49.87
72585;BME280;73873;40.084;32.908;2024-03-02T09:30:28;89105.44;;;12.31;47.06
72585;BME280;73873;40.084;32.908;2024-03-02T09:32:55;89101.50;;;12.38;45.81
72585;BME280;73873;40.084;32.908;2024-03-02T09:35:42;89101.66;;;12.62;46.14
72585;BME280;73873;40.084;32.908;2024-03-02T09:38:09;89090.47;;;12.64;45.90
72585;BME280;73873;40.084;32.908;2024-03-02T09:40:36;89091.84;;;12.76;48.99
72585;BME280;73873;40.084;32.908;2024-03-02T09:43:03;89080.44;;;12.81;44.61
72585;BME280;73873;40.084;32.908;2024-03-02T09:45:31;89078.59;;;13.00;43.62
72585;BME280;73873;40.084;32.908;2024-03-02T09:47:58;89077.03;;;13.16;43.84
72585;BME280;73873;40.084;32.908;2024-03-02T09:50:25;89075.41;;;13.07;44.25
72585;BME280;73873;40.084;32.908;2024-03-02T09:52:52;89068.00;;;12.84;46.11
72585;BME280;73873;40.084;32.908;2024-03-02T09:55:20;89060.56;;;13.12;45.40
72585;BME280;73873;40.084;32.908;2024-03-02T09:57:47;89052.44;;;12.88;44.26
72585;BME280;73873;40.084;32.908;2024-03-02T10:00:15;89046.94;;;13.10;44.89
72585;BME280;73873;40.084;32.908;2024-03-02T10:02:42;89045.56;;;12.98;44.17
72585;BME280;73873;40.084;32.908;2024-03-02T10:05:09;89042.28;;;13.16;43.71
72585;BME280;73873;40.084;32.908;2024-03-02T10:07:36;89033.72;;;13.53;44.23
72585;BME280;73873;40.084;32.908;2024-03-02T10:10:14;89036.00;;;13.44;43.25
72585;BME280;73873;40.084;32.908;2024-03-02T10:12:42;89027.88;;;13.55;43.48
72585;BME280;73873;40.084;32.908;2024-03-02T10:15:09;89032.00;;;13.56;42.08
72585;BME280;73873;40.084;32.908;2024-03-02T10:17:36;89025.19;;;13.30;41.36
72585;BME280;73873;40.084;32.908;2024-03-02T10:20:26;89011.78;;;13.85;41.43
72585;BME280;73873;40.084;32.908;2024-03-02T10:22:53;89012.63;;;14.36;39.65
72585;BME280;73873;40.084;32.908;2024-03-02T10:25:33;89024.31;;;14.39;38.76
72585;BME280;73873;40.084;32.908;2024-03-02T10:28:03;89011.63;;;14.39;37.77
72585;BME280;73873;40.084;32.908;2024-03-02T10:30:30;89003.75;;;13.85;37.07
72585;BME280;73873;40.084;32.908;2024-03-02T10:32:57;89003.81;;;14.41;36.47
72585;BME280;73873;40.084;32.908;2024-03-02T10:35:24;88997.56;;;14.71;35.82
72585;BME280;73873;40.084;32.908;2024-03-02T10:37:52;88994.34;;;15.10;35.47
72585;BME280;73873;40.084;32.908;2024-03-02T10:40:22;88998.59;;;14.30;35.02
72585;BME280;73873;40.084;32.908;2024-03-02T10:42:50;88989.97;;;14.37;33.94
72585;BME280;73873;40.084;32.908;2024-03-02T10:45:19;88988.63;;;14.50;31.68
72585;BME280;73873;40.084;32.908;2024-03-02T10:47:47;88983.44;;;14.70;33.16
72585;BME280;73873;40.084;32.908;2024-03-02T10:50:14;88982.75;;;15.02;31.24
72585;BME280;73873;40.084;32.908;2024-03-02T10:52:41;88975.44;;;15.02;25.68
72585;BME280;73873;40.084;32.908;2024-03-02T10:55:09;88976.53;;;14.94;28.87
72585;BME280;73873;40.084;32.908;2024-03-02T10:57:50;88972.66;;;14.76;29.64
72585;BME280;73873;40.084;32.908;2024-03-02T11:00:18;88962.44;;;15.07;28.29
72585;BME280;73873;40.084;32.908;2024-03-02T11:02:56;88975.28;;;15.27;26.14
72585;BME280;73873;40.084;32.908;2024-03-02T11:05:27;88967.22;;;15.14;26.34
72585;BME280;73873;40.084;32.908;2024-03-02T11:08:00;88967.53;;;15.37;25.47
72585;BME280;73873;40.084;32.908;2024-03-02T11:10:50;88963.34;;;15.41;25.28
72585;BME280;73873;40.084;32.908;2024-03-02T11:13:31;88969.88;;;15.72;26.10
72585;BME280;73873;40.084;32.908;2024-03-02T11:16:06;88959.22;;;15.40;26.09
72585;BME280;73873;40.084;32.908;2024-03-02T11:18:37;88950.13;;;15.43;27.18
72585;BME280;73873;40.084;32.908;2024-03-02T11:21:04;88957.00;;;15.84;25.43
72585;BME280;73873;40.084;32.908;2024-03-02T11:23:35;88952.59;;;15.41;26.41
72585;BME280;73873;40.084;32.908;2024-03-02T11:28:44;88944.50;;;15.01;26.43
72585;BME280;73873;40.084;32.908;2024-03-02T11:31:12;88940.31;;;15.32;27.76
72585;BME280;73873;40.084;32.908;2024-03-02T11:33:39;88949.50;;;15.50;26.89
72585;BME280;73873;40.084;32.908;2024-03-02T11:36:06;88940.47;;;15.67;23.97
72585;BME280;73873;40.084;32.908;2024-03-02T11:38:36;88940.16;;;15.70;25.61
72585;BME280;73873;40.084;32.908;2024-03-02T11:41:06;88947.66;;;16.11;25.27
72585;BME280;73873;40.084;32.908;2024-03-02T11:43:33;88938.78;;;16.03;23.55
72585;BME280;73873;40.084;32.908;2024-03-02T11:46:05;88940.75;;;15.50;22.84
72585;BME280;73873;40.084;32.908;2024-03-02T11:48:33;88936.06;;;15.11;23.78
72585;BME280;73873;40.084;32.908;2024-03-02T11:51:01;88928.41;;;15.01;23.24
72585;BME280;73873;40.084;32.908;2024-03-02T11:53:28;88931.50;;;15.05;22.32
72585;BME280;73873;40.084;32.908;2024-03-02T11:56:01;88939.19;;;15.28;22.89
72585;BME280;73873;40.084;32.908;2024-03-02T11:58:28;88928.56;;;15.88;22.71
72585;BME280;73873;40.084;32.908;2024-03-02T12:00:55;88927.66;;;15.86;22.21
72585;BME280;73873;40.084;32.908;2024-03-02T12:03:24;88923.19;;;15.49;23.67
72585;BME280;73873;40.084;32.908;2024-03-02T12:05:54;88925.03;;;15.41;23.78
72585;BME280;73873;40.084;32.908;2024-03-02T12:08:22;88933.38;;;15.24;25.07
72585;BME280;73873;40.084;32.908;2024-03-02T12:11:01;88921.16;;;15.68;25.92
72585;BME280;73873;40.084;32.908;2024-03-02T12:13:30;88918.75;;;15.51;28.29
72585;BME280;73873;40.084;32.908;2024-03-02T12:15:57;88927.88;;;14.71;28.76
72585;BME280;73873;40.084;32.908;2024-03-02T12:18:25;88908.00;;;14.80;28.81
72585;BME280;73873;40.084;32.908;2024-03-02T12:20:53;88917.13;;;14.90;27.83
72585;BME280;73873;40.084;32.908;2024-03-02T12:23:20;88910.44;;;14.96;26.95
72585;BME280;73873;40.084;32.908;2024-03-02T12:25:47;88906.44;;;15.16;26.69
72585;BME280;73873;40.084;32.908;2024-03-02T12:28:14;88911.94;;;15.50;27.28
72585;BME280;73873;40.084;32.908;2024-03-02T12:30:42;88908.34;;;15.48;27.46
72585;BME280;73873;40.084;32.908;2024-03-02T12:33:11;88906.06;;;15.39;27.87
72585;BME280;73873;40.084;32.908;2024-03-02T12:35:38;88908.72;;;15.12;27.74
72585;BME280;73873;40.084;32.908;2024-03-02T12:38:04;88906.31;;;15.09;27.77
72585;BME280;73873;40.084;32.908;2024-03-02T12:40:31;88902.44;;;15.23;27.94
72585;BME280;73873;40.084;32.908;2024-03-02T12:42:58;88904.34;;;14.96;27.57
72585;BME280;73873;40.084;32.908;2024-03-02T12:45:25;88908.13;;;15.19;27.91
72585;BME280;73873;40.084;32.908;2024-03-02T12:47:53;88901.22;;;15.37;27.23
72585;BME280;73873;40.084;32.908;2024-03-02T12:50:21;88896.25;;;15.54;28.15
72585;BME280;73873;40.084;32.908;2024-03-02T12:52:54;88897.09;;;15.76;27.07
72585;BME280;73873;40.084;32.908;2024-03-02T12:55:22;88894.78;;;15.53;27.40
72585;BME280;73873;40.084;32.908;2024-03-02T12:57:51;88886.53;;;15.25;26.92
72585;BME280;73873;40.084;32.908;2024-03-02T13:00:20;88890.00;;;14.93;28.64
72585;BME280;73873;40.084;32.908;2024-03-02T13:02:48;88894.63;;;14.80;28.18
72585;BME280;73873;40.084;32.908;2024-03-02T13:05:15;88886.00;;;15.13;27.83
72585;BME280;73873;40.084;32.908;2024-03-02T13:07:42;88889.34;;;15.32;26.09